Time;durP1;ratioP1;P1;durP2;ratioP2;P2;SDS_P1;SDS_P2;PMS_P1;PMS_P2;Temp;Humidity;BMP_temperature;BMP_pressure;BME280_temperature;BME280_humidity;BME280_pressure;Samples;Min_cycle;Max_cycle;Signal;HPM_P1;HPM_P2
2022/08/19 00:01:43;;;;;;;15.23;13.70;;;21.60;99.90;21.10;100078;;;;560028;252;24203;-84
2022/08/19 00:04:11;;;;;;;14.93;13.43;;;21.50;99.90;21.10;100084;;;;558212;252;24122;-85
2022/08/19 00:06:39;;;;;;;17.40;12.97;;;21.50;99.90;21.00;100082;;;;560629;252;24108;-85
2022/08/19 00:09:11;;;;;;;15.27;13.87;;;21.40;99.90;21.00;100076;;;;568565;252;23220;-85
2022/08/19 00:11:39;;;;;;;17.97;13.97;;;21.40;99.90;20.90;100073;;;;568403;252;24109;-85
2022/08/19 00:14:03;;;;;;;15.80;14.17;;;21.40;99.90;20.90;100075;;;;568542;250;23143;-84
2022/08/19 00:16:31;;;;;;;20.47;14.33;;;21.30;99.90;20.80;100081;;;;557628;252;23189;-86
2022/08/19 00:18:59;;;;;;;19.93;15.67;;;21.20;99.90;20.80;100083;;;;569000;252;23122;-84
2022/08/19 00:21:27;;;;;;;20.70;15.20;;;21.20;99.90;20.70;100089;;;;559072;252;24163;-84
2022/08/19 00:23:57;;;;;;;19.17;15.23;;;21.10;99.90;20.70;100097;;;;557695;252;24131;-85
2022/08/19 00:26:23;;;;;;;17.37;14.47;;;21.10;99.90;20.70;100103;;;;559802;252;24098;-85
2022/08/19 00:28:51;;;;;;;21.20;14.63;;;21.10;99.90;20.70;100105;;;;568512;251;24153;-85
2022/08/19 00:31:18;;;;;;;17.20;14.57;;;21.10;99.90;20.70;100097;;;;568390;252;24114;-84
2022/08/19 00:33:49;;;;;;;17.27;15.17;;;21.10;99.90;20.60;100095;;;;568386;252;24157;-81
2022/08/19 00:36:15;;;;;;;16.20;14.50;;;21.00;99.90;20.60;100098;;;;568540;251;24186;-84
2022/08/19 00:38:44;;;;;;;17.27;15.50;;;21.00;99.90;20.60;100101;;;;568465;252;23147;-83
2022/08/19 00:41:19;;;;;;;18.77;15.40;;;21.00;99.90;20.50;100101;;;;568546;252;24117;-84
2022/08/19 00:43:46;;;;;;;18.53;15.93;;;21.00;99.90;20.50;100102;;;;568369;252;24171;-84
2022/08/19 00:46:11;;;;;;;17.60;15.73;;;21.00;99.90;20.50;100106;;;;568819;251;23172;-84
2022/08/19 00:48:39;;;;;;;20.60;16.63;;;20.90;99.90;20.50;100105;;;;554397;252;23230;-84
2022/08/19 00:51:07;;;;;;;19.87;15.50;;;20.90;99.90;20.50;100103;;;;568854;252;24107;-82
2022/08/19 00:53:35;;;;;;;21.63;17.30;;;20.90;99.90;20.50;100111;;;;569311;250;24122;-85
2022/08/19 00:56:05;;;;;;;20.40;18.30;;;20.90;99.90;20.50;100109;;;;569675;251;24119;-84
2022/08/19 00:58:32;;;;;;;21.97;16.17;;;21.00;99.90;20.50;100110;;;;554636;252;23134;-79
2022/08/19 01:01:01;;;;;;;17.97;16.13;;;20.90;99.90;20.50;100101;;;;569011;251;23134;-83
2022/08/19 01:03:29;;;;;;;18.87;16.87;;;21.00;99.90;20.50;100102;;;;560915;252;23114;-84
2022/08/19 01:06:00;;;;;;;19.90;16.90;;;20.90;99.90;20.50;100094;;;;568951;252;24079;-83
2022/08/19 01:08:28;;;;;;;21.17;16.67;;;20.90;99.90;20.50;100102;;;;564835;252;23125;-82
2022/08/19 01:10:54;;;;;;;18.43;16.73;;;20.90;99.90;20.40;100106;;;;555075;256;23259;-84
2022/08/19 01:13:21;;;;;;;18.20;15.97;;;20.90;99.90;20.40;100109;;;;558489;252;24152;-83
2022/08/19 01:15:58;;;;;;;20.17;17.43;;;20.90;99.90;20.40;100109;;;;557849;252;23125;-84
2022/08/19 01:18:23;;;;;;;18.67;16.73;;;20.80;99.90;20.40;100105;;;;557093;252;24123;-84
2022/08/19 01:20:55;;;;;;;19.00;17.10;;;20.80;99.90;20.30;100104;;;;568955;252;24091;-85
2022/08/19 01:23:18;;;;;;;22.47;18.00;;;20.80;99.90;20.30;100103;;;;557273;252;23212;-84
2022/08/19 01:25:46;;;;;;;18.23;16.43;;;20.70;99.90;20.30;100096;;;;568591;252;24096;-83
2022/08/19 01:28:20;;;;;;;18.20;16.50;;;20.70;99.90;20.20;100097;;;;568723;250;24115;-83
2022/08/19 01:30:48;;;;;;;20.90;17.07;;;20.70;99.90;20.20;100100;;;;568379;251;24098;-81
2022/08/19 01:33:17;;;;;;;20.10;16.13;;;20.60;99.90;20.20;100100;;;;553750;252;24178;-81
2022/08/19 01:35:44;;;;;;;21.53;17.77;;;20.60;99.90;20.20;100095;;;;568325;252;24113;-82
2022/08/19 01:38:21;;;;;;;18.67;16.87;;;20.60;99.90;20.10;100092;;;;568479;252;24181;-82
2022/08/19 01:40:49;;;;;;;22.03;17.80;;;20.60;99.90;20.10;100090;;;;568332;252;23126;-82
2022/08/19 01:43:20;;;;;;;21.17;17.57;;;20.50;99.90;20.10;100085;;;;568794;252;24179;-82
2022/08/19 01:45:45;;;;;;;21.03;17.87;;;20.50;99.90;20.10;100083;;;;564382;252;24114;-84
2022/08/19 01:48:17;;;;;;;20.60;18.00;;;20.50;99.90;20.10;100088;;;;553633;252;24165;-84
2022/08/19 01:50:43;;;;;;;20.77;18.10;;;20.50;99.90;20.00;100091;;;;557431;252;24147;-83
2022/08/19 01:53:11;;;;;;;20.80;18.80;;;20.50;99.90;20.00;100095;;;;568334;252;23165;-85
2022/08/19 01:55:40;;;;;;;20.27;17.77;;;20.40;99.90;20.00;100101;;;;557650;252;24114;-86
2022/08/19 01:58:14;;;;;;;23.40;18.83;;;20.40;99.90;19.90;100098;;;;556743;252;24126;-85
2022/08/19 02:00:45;;;;;;;19.80;17.90;;;20.40;99.90;19.90;100092;;;;553998;252;24154;-84
2022/08/19 02:03:11;;;;;;;21.70;19.07;;;20.30;99.90;19.90;100090;;;;559915;252;24108;-85
2022/08/19 02:05:38;;;;;;;22.83;20.53;;;20.30;99.90;19.90;100086;;;;569419;250;24115;-86
2022/08/19 02:08:06;;;;;;;23.60;20.40;;;20.30;99.90;19.80;100090;;;;569678;251;24112;-86
2022/08/19 02:10:34;;;;;;;27.13;21.10;;;20.30;99.90;19.80;100089;;;;569305;252;24123;-85
2022/08/19 02:13:02;;;;;;;23.10;20.70;;;20.30;99.90;19.80;100092;;;;569325;252;24097;-85
2022/08/19 02:15:33;;;;;;;26.13;21.30;;;20.20;99.90;19.80;100085;;;;568967;252;24162;-85
2022/08/19 02:18:00;;;;;;;25.37;21.27;;;20.30;99.90;19.80;100096;;;;554943;256;25238;-84
2022/08/19 02:20:25;;;;;;;27.20;20.30;;;20.30;99.90;19.80;100088;;;;563868;252;24120;-84
2022/08/19 02:22:53;;;;;;;35.33;23.00;;;20.30;99.90;19.80;100087;;;;568759;252;24176;-85
2022/08/19 02:25:21;;;;;;;30.42;27.52;;;20.30;99.90;19.90;100089;;;;563862;252;35444;-85
2022/08/19 02:27:49;;;;;;;25.53;22.60;;;20.30;99.90;19.90;100077;;;;568618;252;24096;-85
2022/08/19 02:30:17;;;;;;;24.47;20.43;;;20.30;99.90;19.90;100076;;;;568810;252;24106;-82
2022/08/19 02:32:45;;;;;;;23.17;20.73;;;20.40;99.90;19.90;100073;;;;559777;252;24102;-85
2022/08/19 02:35:16;;;;;;;22.00;19.50;;;20.40;99.90;19.90;100074;;;;568645;252;24134;-85
2022/08/19 02:40:28;;;;;;;20.53;17.90;;;20.40;99.90;20.00;100073;;;;567749;252;23116;-85
2022/08/19 02:42:57;;;;;;;23.43;18.80;;;20.40;99.90;20.00;100085;;;;568440;252;24123;-83
2022/08/19 02:45:25;;;;;;;21.17;18.50;;;20.50;99.90;20.00;100077;;;;544130;256;24212;-85
2022/08/19 02:47:54;;;;;;;20.23;18.27;;;20.50;99.90;20.10;100068;;;;568391;252;24124;-82
2022/08/19 02:50:22;;;;;;;21.03;18.90;;;20.60;99.90;20.10;100076;;;;568361;252;25175;-85
2022/08/19 02:52:51;;;;;;;24.03;18.53;;;20.60;99.90;20.10;100078;;;;568541;252;24108;-85
2022/08/19 02:55:20;;;;;;;19.13;17.27;;;20.50;99.90;20.10;100084;;;;568446;252;24098;-85
2022/08/19 02:57:47;;;;;;;26.57;19.03;;;20.50;99.90;20.10;100085;;;;568820;252;25173;-83
2022/08/19 03:00:15;;;;;;;20.83;18.63;;;20.60;99.90;20.20;100087;;;;567297;252;24102;-84
2022/08/19 03:02:43;;;;;;;19.73;17.33;;;20.70;99.90;20.30;100085;;;;560043;252;24113;-82
2022/08/19 03:05:11;;;;;;;21.07;17.30;;;20.70;99.90;20.30;100085;;;;568727;252;24156;-85
2022/08/19 03:07:39;;;;;;;18.67;16.77;;;20.80;99.90;20.40;100084;;;;568776;252;23144;-86
2022/08/19 03:10:11;;;;;;;19.67;17.40;;;20.90;99.90;20.50;100074;;;;568644;252;25175;-85
2022/08/19 03:12:35;;;;;;;19.33;17.27;;;21.00;99.90;20.50;100082;;;;559833;252;24116;-85
2022/08/19 03:15:03;;;;;;;19.90;16.47;;;21.00;99.90;20.50;100082;;;;568567;250;24141;-85
2022/08/19 03:17:31;;;;;;;18.10;16.30;;;21.00;99.90;20.50;100083;;;;557655;251;24101;-85
2022/08/19 03:19:59;;;;;;;18.10;16.20;;;21.00;99.90;20.50;100076;;;;569541;251;24106;-81
2022/08/19 03:22:27;;;;;;;18.17;16.00;;;21.00;99.90;20.40;100082;;;;569339;252;24092;-81
2022/08/19 03:24:55;;;;;;;19.57;16.33;;;21.00;99.90;20.40;100082;;;;569187;252;24145;-83
2022/08/19 03:27:23;;;;;;;22.97;17.53;;;20.90;99.90;20.40;100084;;;;569128;252;23117;-83
2022/08/19 03:29:51;;;;;;;22.63;16.47;;;20.90;99.90;20.30;100092;;;;568961;252;23143;-82
2022/08/19 03:32:19;;;;;;;18.50;16.60;;;20.80;99.90;20.30;100088;;;;568849;252;24148;-84
2022/08/19 03:34:46;;;;;;;20.93;17.37;;;20.70;99.90;20.30;100091;;;;569293;252;23149;-85
2022/08/19 03:37:14;;;;;;;20.47;18.10;;;20.70;99.90;20.20;100085;;;;565187;252;24203;-85
2022/08/19 03:39:42;;;;;;;19.80;17.70;;;20.70;99.90;20.30;100085;;;;569021;252;24124;-86
2022/08/19 03:42:10;;;;;;;21.13;19.10;;;20.70;99.90;20.20;100080;;;;569070;252;24094;-86
2022/08/19 03:44:39;;;;;;;20.60;18.53;;;20.70;99.90;20.30;100078;;;;565057;252;24111;-84
2022/08/19 03:47:08;;;;;;;21.03;18.93;;;20.70;99.90;20.30;100075;;;;569058;249;23138;-83
2022/08/19 03:49:36;;;;;;;22.20;17.93;;;20.80;99.90;20.30;100083;;;;569051;252;24094;-82
2022/08/19 03:52:07;;;;;;;19.67;17.87;;;20.80;99.90;20.30;100074;;;;569060;252;23165;-81
2022/08/19 03:54:33;;;;;;;19.60;17.60;;;20.80;99.90;20.40;100074;;;;559169;252;24113;-81
2022/08/19 03:57:01;;;;;;;18.53;15.73;;;20.80;99.90;20.40;100081;;;;568803;252;24152;-81
2022/08/19 03:59:32;;;;;;;21.90;18.20;;;20.80;99.90;20.40;100081;;;;568771;252;24128;-82
2022/08/19 04:02:05;;;;;;;19.53;17.53;;;20.80;99.90;20.40;100080;;;;568727;251;24149;-84
2022/08/19 04:04:28;;;;;;;20.23;17.53;;;20.80;99.90;20.50;100073;;;;560080;252;23130;-85
2022/08/19 04:07:00;;;;;;;24.10;17.03;;;20.90;99.90;20.50;100077;;;;568390;252;23119;-84
2022/08/19 04:09:28;;;;;;;20.80;18.07;;;21.00;99.90;20.60;100088;;;;558731;252;24162;-84
2022/08/19 04:11:56;;;;;;;23.23;17.93;;;21.00;99.90;20.70;100091;;;;553892;252;24112;-85
2022/08/19 04:14:24;;;;;;;18.57;16.67;;;21.10;99.90;20.70;100088;;;;557070;252;24164;-86
2022/08/19 04:16:52;;;;;;;25.73;17.97;;;21.10;99.90;20.80;100086;;;;560383;252;24121;-85
2022/08/19 04:19:19;;;;;;;19.70;17.17;;;21.20;99.90;20.80;100094;;;;568657;252;24120;-85
2022/08/19 04:21:48;;;;;;;19.63;16.93;;;21.30;99.90;20.90;100092;;;;553979;252;23141;-85
2022/08/19 04:24:16;;;;;;;21.70;18.20;;;21.30;99.90;21.00;100094;;;;568749;249;24158;-84
2022/08/19 04:26:44;;;;;;;21.40;17.67;;;21.40;99.90;21.10;100088;;;;557947;252;23129;-84
2022/08/19 04:29:15;;;;;;;19.97;17.47;;;21.50;99.90;21.30;100092;;;;559710;255;23165;-84
2022/08/19 04:31:46;;;;;;;23.00;17.70;;;21.70;99.90;21.40;100093;;;;564850;251;24109;-85
2022/08/19 04:34:13;;;;;;;19.97;16.07;;;21.80;99.90;21.70;100089;;;;570523;249;24105;-84
2022/08/19 04:36:39;;;;;;;17.87;15.47;;;22.10;99.90;22.30;100091;;;;560474;252;24109;-84
2022/08/19 04:39:09;;;;;;;17.53;12.47;;;22.70;99.90;23.20;100092;;;;557261;252;24099;-84
2022/08/19 04:44:25;;;;;;;25.60;14.23;;;25.30;99.90;24.90;100085;;;;568948;252;24105;-85
2022/08/19 04:46:56;;;;;;;15.43;13.27;;;26.10;99.90;25.70;100088;;;;568738;249;24182;-84
2022/08/19 04:49:24;;;;;;;18.63;12.77;;;26.80;99.90;26.40;100082;;;;554047;252;24104;-84
2022/08/19 04:51:51;;;;;;;20.70;13.23;;;27.70;99.90;27.30;100089;;;;568468;252;24140;-81
2022/08/19 04:54:22;;;;;;;12.60;11.30;;;28.70;99.90;28.30;100090;;;;560386;252;23218;-82
2022/08/19 04:56:49;;;;;;;11.87;10.73;;;29.60;99.90;29.20;100088;;;;568575;251;23150;-84
2022/08/19 04:59:15;;;;;;;14.45;10.73;;;29.60;99.90;29.60;100093;;;;569020;252;23132;-84
2022/08/19 05:01:46;;;;;;;12.73;10.90;;;30.20;99.90;29.10;100100;;;;556265;256;23160;-84
2022/08/19 05:04:12;;;;;;;13.37;11.63;;;29.30;99.90;28.40;100106;;;;563984;252;23138;-84
2022/08/19 05:06:40;;;;;;;14.67;11.00;;;29.30;99.90;27.80;100106;;;;568721;252;24224;-83
2022/08/19 05:09:08;;;;;;;13.43;11.83;;;28.70;99.90;27.20;100099;;;;568756;252;24132;-84
2022/08/19 05:11:38;;;;;;;21.23;12.50;;;28.10;99.90;26.70;100100;;;;568781;252;24116;-85
2022/08/19 05:14:04;;;;;;;19.30;11.93;;;27.30;99.90;26.70;100105;;;;556785;252;24146;-84
2022/08/19 05:16:32;;;;;;;15.87;11.73;;;27.30;99.90;26.50;100100;;;;568328;252;24102;-83
2022/08/19 05:24:36;;;;;;;13.83;10.87;;;28.20;99.90;28.80;100102;;;;567137;252;23122;-84
2022/08/19 05:27:02;;;;;;;12.23;11.10;;;29.30;99.90;28.90;100096;;;;568440;252;23123;-83
2022/08/19 05:29:33;;;;;;;12.30;11.13;;;29.10;99.90;28.50;100102;;;;544228;256;23157;-84
2022/08/19 05:32:02;;;;;;;11.12;10.13;;;29.10;99.90;28.80;100092;;;;568474;250;24144;-83
2022/08/19 05:34:31;;;;;;;11.27;10.13;;;29.80;99.90;29.60;100103;;;;568374;252;23165;-84
2022/08/19 05:36:59;;;;;;;10.60;9.57;;;30.40;99.90;30.10;100107;;;;559963;252;23128;-83
2022/08/19 05:39:25;;;;;;;13.07;10.30;;;30.50;99.90;30.00;100107;;;;550131;257;23154;-84
2022/08/19 05:41:56;;;;;;;11.70;10.80;;;30.10;99.90;29.40;100110;;;;559165;251;23118;-84
2022/08/19 05:44:26;;;;;;;12.98;11.70;;;30.10;99.90;29.00;100125;;;;569806;251;23118;-84
2022/08/19 05:46:54;;;;;;;12.57;11.20;;;29.70;99.90;28.90;100131;;;;554746;252;23125;-83
2022/08/19 05:49:26;;;;;;;11.85;10.55;;;29.30;99.90;28.70;100134;;;;569517;252;23124;-84
2022/08/19 05:51:51;;;;;;;16.73;11.67;;;29.10;99.90;28.60;100125;;;;560490;252;23174;-85
2022/08/19 05:54:20;;;;;;;12.48;11.00;;;29.20;99.90;28.80;100126;;;;560028;252;23115;-84
2022/08/19 05:56:49;;;;;;;17.83;10.53;;;29.80;99.90;29.60;100130;;;;568926;252;23167;-85
2022/08/19 05:59:17;;;;;;;18.00;10.55;;;30.80;99.90;30.70;100140;;;;568675;252;23128;-86
2022/08/19 06:01:45;;;;;;;21.35;10.20;;;30.80;99.90;32.20;100149;;;;560371;252;23128;-84
2022/08/19 06:04:17;;;;;;;16.00;10.80;;;32.20;99.90;33.10;100150;;;;568455;249;23122;-84
2022/08/19 06:06:44;;;;;;;17.62;10.60;;;33.30;96.60;33.20;100148;;;;553963;252;23126;-85
2022/08/19 06:09:13;;;;;;;16.60;10.23;;;33.40;93.70;32.80;100160;;;;569021;252;24113;-83
2022/08/19 06:11:43;;;;;;;25.27;11.15;;;33.20;93.00;32.50;100159;;;;554294;252;23117;-83
2022/08/19 06:14:12;;;;;;;13.80;9.43;;;32.70;92.80;31.90;100151;;;;568890;252;23133;-84
2022/08/19 06:16:44;;;;;;;12.23;9.60;;;32.70;92.80;31.30;100156;;;;547904;253;23151;-84
2022/08/19 06:19:08;;;;;;;14.23;10.15;;;32.10;93.50;31.90;100150;;;;548543;258;23201;-84
2022/08/19 06:21:40;;;;;;;13.93;9.05;;;32.20;94.30;33.00;100148;;;;558871;253;23158;-84
2022/08/19 06:24:04;;;;;;;19.10;10.10;;;33.10;93.20;34.40;100150;;;;552436;253;23192;-84
2022/08/19 06:26:32;;;;;;;10.80;8.23;;;34.30;91.00;35.70;100147;;;;569258;252;23097;-84
2022/08/19 06:29:04;;;;;;;13.60;9.55;;;35.70;87.40;36.80;100148;;;;563402;251;35399;-83
2022/08/19 06:31:33;;;;;;;12.98;8.75;;;36.90;80.00;36.80;100145;;;;568302;251;23170;-83
2022/08/19 06:33:56;;;;;;;11.45;8.88;;;37.10;77.10;37.40;100141;;;;553658;252;35478;-84
2022/08/19 06:36:33;;;;;;;8.82;8.07;;;37.70;74.40;38.50;100143;;;;548051;257;23152;-83
2022/08/19 06:39:01;;;;;;;14.23;8.68;;;38.60;71.40;39.60;100154;;;;568084;252;29466;-84
2022/08/19 06:41:30;;;;;;;12.30;8.32;;;40.90;63.50;40.90;100166;;;;547311;257;23213;-85
2022/08/19 06:43:57;;;;;;;9.00;8.20;;;40.90;63.40;41.80;100157;;;;564458;252;23115;-86
2022/08/19 06:46:28;;;;;;;17.73;8.80;;;41.90;59.30;41.90;100151;;;;557530;252;23158;-84
2022/08/19 06:48:54;;;;;;;10.23;8.57;;;42.20;56.90;42.40;100154;;;;557809;257;23148;-83
2022/08/19 06:51:21;;;;;;;9.27;8.27;;;42.70;56.70;43.50;100158;;;;558398;254;23154;-84
2022/08/19 06:53:49;;;;;;;9.40;8.30;;;43.70;55.40;44.40;100161;;;;559301;251;23147;-85
2022/08/19 06:56:17;;;;;;;10.63;8.05;;;44.50;52.50;44.90;100144;;;;554950;256;23225;-83
2022/08/19 06:58:46;;;;;;;10.80;8.30;;;45.10;52.10;45.60;100144;;;;565247;252;23172;-85
2022/08/19 07:01:13;;;;;;;10.23;8.18;;;45.70;50.40;46.20;100143;;;;558213;252;23134;-84
2022/08/19 07:03:41;;;;;;;9.50;7.75;;;46.30;48.60;46.20;100150;;;;547900;256;23160;-84
2022/08/19 07:06:12;;;;;;;8.63;6.93;;;46.50;48.00;46.30;100159;;;;569098;252;23164;-84
2022/08/19 07:08:42;;;;;;;10.80;8.05;;;46.70;48.10;46.30;100165;;;;554939;256;23151;-84
2022/08/19 07:11:10;;;;;;;9.20;8.40;;;46.80;46.70;45.80;100158;;;;558221;252;23102;-84
2022/08/19 07:13:39;;;;;;;8.50;7.68;;;46.40;48.00;45.90;100165;;;;554698;257;23161;-83
2022/08/19 07:16:07;;;;;;;10.07;8.60;;;46.40;48.00;46.20;100154;;;;558645;252;23104;-84
2022/08/19 07:18:35;;;;;;;12.18;8.20;;;46.60;46.50;46.20;100151;;;;555311;250;24273;-84
2022/08/19 07:21:05;;;;;;;9.82;7.20;;;46.70;46.50;46.60;100166;;;;564571;252;23151;-84
2022/08/19 07:23:33;;;;;;;10.82;7.75;;;46.80;46.80;47.30;100169;;;;568464;251;24155;-84
2022/08/19 07:26:20;;;;;;;12.63;7.85;;;47.40;45.90;47.50;100168;;;;557856;252;23143;-85
2022/08/19 07:28:47;;;;;;;10.30;8.90;;;47.70;45.00;47.70;100177;;;;547380;257;23161;-85
2022/08/19 07:31:17;;;;;;;11.75;7.62;;;47.90;45.00;47.60;100176;;;;564267;252;23112;-84
2022/08/19 07:33:45;;;;;;;8.27;7.57;;;48.20;44.40;47.90;100167;;;;547837;257;24175;-85
2022/08/19 07:36:13;;;;;;;9.18;7.50;;;48.10;44.30;47.90;100163;;;;564761;252;23108;-84
2022/08/19 07:38:41;;;;;;;9.93;8.80;;;48.20;43.90;47.90;100169;;;;560323;252;23125;-84
2022/08/19 07:41:11;;;;;;;13.57;8.00;;;48.30;43.50;47.60;100167;;;;554487;256;23150;-85
2022/08/19 07:43:39;;;;;;;9.45;7.50;;;48.20;43.60;47.50;100166;;;;559928;252;23138;-85
2022/08/19 07:46:08;;;;;;;8.48;7.72;;;48.00;43.70;47.60;100170;;;;557999;252;23126;-84
2022/08/19 07:48:39;;;;;;;8.45;7.60;;;48.00;43.70;47.50;100168;;;;547841;257;23143;-85
2022/08/19 07:51:04;;;;;;;9.60;7.22;;;47.90;43.70;47.50;100167;;;;557712;252;23186;-85
2022/08/19 07:53:34;;;;;;;8.95;7.90;;;47.90;43.70;46.80;100165;;;;548536;257;23149;-85
2022/08/19 07:56:03;;;;;;;12.52;8.02;;;47.60;43.60;46.20;100163;;;;556584;252;23163;-86
2022/08/19 07:58:31;;;;;;;9.95;7.32;;;47.00;44.20;45.80;100168;;;;557745;252;23125;-86
2022/08/19 08:00:55;;;;;;;8.85;7.70;;;46.60;44.50;45.30;100174;;;;558178;256;23156;-86
2022/08/19 08:09:10;;;;;;;10.95;7.97;;;46.10;45.10;45.10;100172;;;;569293;250;23121;-83
2022/08/19 08:11:11;;;;;;;8.65;8.05;;;45.40;46.20;45.00;100165;;;;548201;256;23182;-85
2022/08/19 08:13:39;;;;;;;9.40;7.55;;;45.50;46.20;45.00;100167;;;;568873;251;23166;-85
2022/08/19 08:16:03;;;;;;;11.12;7.75;;;45.50;46.40;45.30;100161;;;;558406;256;23156;-85
2022/08/19 08:18:31;;;;;;;9.60;7.12;;;45.60;46.30;45.50;100156;;;;559359;252;23157;-84
2022/08/19 08:20:59;;;;;;;9.25;7.03;;;46.00;45.40;45.10;100160;;;;547900;257;24181;-85
2022/08/19 08:23:29;;;;;;;7.35;6.70;;;45.40;45.50;44.50;100163;;;;568847;252;23114;-85
2022/08/19 08:26:00;;;;;;;9.15;6.90;;;45.00;45.90;44.00;100155;;;;547730;257;23256;-85
2022/08/19 08:28:25;;;;;;;7.50;6.57;;;44.90;45.80;43.40;100151;;;;550368;256;23166;-84
2022/08/19 08:30:54;;;;;;;9.23;6.43;;;44.30;46.40;42.40;100156;;;;558658;252;23119;-85
2022/08/19 08:33:21;;;;;;;10.95;7.70;;;43.50;47.40;41.60;100145;;;;558290;252;23149;-85
2022/08/19 08:35:48;;;;;;;10.38;7.28;;;42.70;48.50;41.60;100150;;;;547996;257;23167;-85
2022/08/19 08:38:17;;;;;;;8.95;6.35;;;42.30;49.20;41.90;100154;;;;558146;252;23113;-84
2022/08/19 08:40:44;;;;;;;8.35;6.00;;;42.40;49.20;41.80;100149;;;;557980;252;23139;-85
2022/08/19 08:43:27;;;;;;;8.20;6.75;;;42.40;48.90;41.80;100151;;;;568528;252;23142;-84
2022/08/19 08:46:03;;;;;;;7.65;6.85;;;42.50;49.20;42.10;100144;;;;564812;252;23155;-85
2022/08/19 08:48:46;;;;;;;8.20;6.68;;;42.70;48.70;42.40;100141;;;;557780;257;23167;-84
2022/08/19 08:51:16;;;;;;;7.20;6.30;;;43.00;48.80;42.50;100141;;;;568826;251;23097;-85
2022/08/19 08:53:44;;;;;;;10.95;6.80;;;43.20;47.90;42.00;100144;;;;568533;252;24173;-84
2022/08/19 08:56:15;;;;;;;8.70;6.18;;;42.90;48.10;42.20;100136;;;;568733;251;24124;-85
2022/08/19 08:58:52;;;;;;;12.05;6.10;;;42.80;48.20;42.80;100144;;;;560310;252;23119;-85
2022/08/19 09:01:20;;;;;;;6.68;6.00;;;43.20;48.00;44.00;100134;;;;558380;251;23110;-84
2022/08/19 09:03:48;;;;;;;8.20;6.35;;;44.20;47.40;44.90;100132;;;;557860;252;23192;-84
2022/08/19 09:06:19;;;;;;;7.70;5.90;;;45.20;46.20;44.70;100131;;;;557914;252;23106;-85
2022/08/19 09:09:03;;;;;;;10.07;6.53;;;45.60;45.00;45.10;100125;;;;542750;257;35599;-85
2022/08/19 09:11:41;;;;;;;9.48;5.68;;;45.90;44.50;45.70;100126;;;;559722;252;23133;-85
2022/08/19 09:14:36;;;;;;;6.72;5.80;;;46.30;44.30;46.10;100124;;;;559299;256;23146;-84
2022/08/19 09:17:07;;;;;;;11.15;5.82;;;46.50;43.10;45.10;100131;;;;560164;253;23066;-85
2022/08/19 09:19:33;;;;;;;11.75;6.43;;;45.60;44.10;44.20;100123;;;;565309;252;23159;-84
2022/08/19 09:22:02;;;;;;;8.55;6.62;;;45.60;44.40;44.60;100127;;;;558424;252;23149;-84
2022/08/19 09:24:30;;;;;;;14.65;6.00;;;45.70;43.90;44.80;100133;;;;548092;256;23164;-83
2022/08/19 09:26:58;;;;;;;9.52;6.22;;;45.70;43.90;44.80;100123;;;;568978;252;23152;-83
2022/08/19 09:29:26;;;;;;;9.38;5.90;;;45.80;43.80;45.20;100124;;;;547920;256;23157;-84
2022/08/19 09:31:55;;;;;;;10.98;6.37;;;46.80;43.60;46.10;100117;;;;569006;252;23194;-82
2022/08/19 09:34:23;;;;;;;9.15;6.25;;;46.80;43.20;46.00;100124;;;;547774;257;23144;-84
2022/08/19 09:36:55;;;;;;;6.10;5.55;;;47.00;42.50;46.40;100117;;;;568594;252;23121;-82
2022/08/19 09:39:24;;;;;;;11.02;5.35;;;47.40;42.30;46.30;100127;;;;547789;257;23150;-84
2022/08/19 09:41:49;;;;;;;7.70;5.60;;;47.40;41.40;45.60;100126;;;;556646;252;23115;-84
2022/08/19 09:44:17;;;;;;;8.88;5.65;;;47.00;41.70;45.50;100126;;;;548219;257;23155;-84
2022/08/19 09:46:46;;;;;;;6.62;5.45;;;46.70;42.50;45.30;100121;;;;557834;252;24151;-84
2022/08/19 09:49:13;;;;;;;11.77;5.82;;;46.60;41.80;44.80;100117;;;;547704;257;23186;-84
2022/08/19 09:51:41;;;;;;;10.80;5.10;;;46.10;42.50;45.00;100109;;;;568357;252;23228;-84
2022/08/19 09:54:12;;;;;;;12.35;5.70;;;46.20;42.70;45.80;100121;;;;547254;257;23141;-84
2022/08/19 09:56:37;;;;;;;9.93;5.95;;;46.70;42.10;45.90;100113;;;;557029;252;23127;-85
2022/08/19 09:59:05;;;;;;;9.18;5.68;;;47.10;41.70;46.60;100113;;;;547364;257;23148;-83
2022/08/19 10:01:32;;;;;;;7.05;5.62;;;47.60;41.50;46.70;100105;;;;568367;252;23155;-82
2022/08/19 10:04:01;;;;;;;11.00;5.70;;;47.90;40.70;46.20;100110;;;;557904;254;23145;-85
2022/08/19 10:06:33;;;;;;;5.87;5.40;;;47.80;40.80;46.20;100111;;;;558184;256;23176;-83
2022/08/19 10:08:56;;;;;;;10.68;6.12;;;47.80;40.60;45.20;100111;;;;557306;252;23177;-83
2022/08/19 10:11:24;;;;;;;9.93;5.28;;;47.20;41.00;44.10;100113;;;;557008;252;23108;-83
2022/08/19 10:13:52;;;;;;;6.43;5.75;;;46.00;42.10;42.80;100106;;;;547799;257;23140;-83
2022/08/19 10:16:24;;;;;;;6.60;5.55;;;43.90;44.60;41.70;100107;;;;568660;252;24165;-82
2022/08/19 10:18:49;;;;;;;8.32;5.32;;;42.60;45.90;40.50;100107;;;;549458;257;23135;-83
2022/08/19 10:21:26;;;;;;;11.57;5.62;;;42.60;45.90;39.40;100106;;;;557783;252;23125;-81
2022/08/19 10:23:54;;;;;;;6.30;5.62;;;41.10;47.80;38.60;100096;;;;568644;251;24159;-84
2022/08/19 10:26:22;;;;;;;9.63;5.75;;;40.00;48.80;38.30;100093;;;;554388;256;23161;-83
2022/08/19 10:28:50;;;;;;;7.25;5.45;;;39.30;49.80;37.80;100082;;;;558268;251;23134;-82
2022/08/19 10:31:21;;;;;;;7.45;5.53;;;38.70;50.30;37.30;100080;;;;558387;252;23146;-82
2022/08/19 10:33:50;;;;;;;11.60;6.00;;;37.70;52.40;36.90;100084;;;;548017;256;23254;-82
2022/08/19 10:36:18;;;;;;;14.15;6.62;;;37.30;53.10;36.50;100090;;;;560138;252;23128;-81
2022/08/19 10:38:50;;;;;;;9.95;6.00;;;36.90;53.90;36.20;100087;;;;554419;256;24217;-82
2022/08/19 10:41:18;;;;;;;12.77;6.12;;;36.80;53.90;36.10;100077;;;;556973;252;23173;-84
2022/08/19 10:43:47;;;;;;;9.23;6.37;;;36.80;53.90;36.00;100075;;;;558222;256;23143;-84
2022/08/19 10:46:14;;;;;;;10.50;5.85;;;36.60;54.40;35.90;100078;;;;558002;252;23168;-83
2022/08/19 10:48:42;;;;;;;7.60;5.50;;;36.50;54.70;35.80;100078;;;;558450;252;23162;-84
2022/08/19 10:53:55;;;;;;;9.18;5.93;;;36.00;55.10;34.90;100077;;;;557965;252;23111;-84
2022/08/19 10:59:09;;;;;;;10.43;6.15;;;35.20;56.30;34.10;100056;;;;547928;257;23187;-84
2022/08/19 11:01:37;;;;;;;9.02;6.68;;;34.70;57.70;33.80;100059;;;;553125;252;35450;-85
2022/08/19 11:04:09;;;;;;;7.28;6.65;;;34.40;58.50;33.40;100056;;;;547643;257;23175;-83
2022/08/19 11:06:33;;;;;;;13.00;6.53;;;33.90;59.50;33.10;100048;;;;557595;257;23177;-84
2022/08/19 11:09:01;;;;;;;7.95;5.97;;;33.60;60.30;32.90;100045;;;;557818;252;24132;-84
2022/08/19 11:11:29;;;;;;;7.80;6.00;;;33.40;61.40;32.70;100050;;;;557454;252;23115;-84
2022/08/19 11:13:57;;;;;;;6.68;6.03;;;33.10;62.10;32.40;100029;;;;547545;257;23185;-83
2022/08/19 11:16:25;;;;;;;6.87;6.25;;;32.90;61.90;32.40;100037;;;;568239;252;23155;-84
2022/08/19 11:18:53;;;;;;;11.32;6.35;;;32.60;62.60;32.10;100018;;;;549203;257;23152;-84
2022/08/19 11:21:25;;;;;;;11.68;6.70;;;32.40;64.20;32.00;100017;;;;557407;252;24140;-81
2022/08/19 11:23:53;;;;;;;10.10;5.70;;;32.40;64.20;31.90;100021;;;;546999;257;23213;-82
2022/08/19 11:26:22;;;;;;;7.00;6.30;;;32.20;64.30;31.80;100015;;;;557385;252;23180;-83
2022/08/19 11:28:59;;;;;;;9.82;6.62;;;32.20;64.30;31.80;100018;;;;557631;247;23127;-83